sensor_id;sensor_type;location;lat;lon;timestamp;P1;durP1;ratioP1;P2;durP2;ratioP2
6586;SDS011;3329;42.686;23.362;2022-08-14T00:00:41;14.80;;;9.70;;
6586;SDS011;3329;42.686;23.362;2022-08-14T00:03:07;19.30;;;10.17;;
6586;SDS011;3329;42.686;23.362;2022-08-14T00:05:33;16.67;;;10.40;;
6586;SDS011;3329;42.686;23.362;2022-08-14T00:07:58;16.83;;;10.40;;
6586;SDS011;3329;42.686;23.362;2022-08-14T00:10:24;23.47;;;10.53;;
6586;SDS011;3329;42.686;23.362;2022-08-14T00:12:53;15.90;;;10.37;;
6586;SDS011;3329;42.686;23.362;2022-08-14T00:15:21;16.33;;;9.90;;
6586;SDS011;3329;42.686;23.362;2022-08-14T00:17:50;16.57;;;9.33;;
6586;SDS011;3329;42.686;23.362;2022-08-14T00:20:17;15.97;;;9.53;;
6586;SDS011;3329;42.686;23.362;2022-08-14T00:22:45;11.77;;;8.10;;
6586;SDS011;3329;42.686;23.362;2022-08-14T00:25:11;15.93;;;9.20;;
6586;SDS011;3329;42.686;23.362;2022-08-14T00:27:36;15.20;;;9.80;;
6586;SDS011;3329;42.686;23.362;2022-08-14T00:30:04;16.53;;;10.03;;
6586;SDS011;3329;42.686;23.362;2022-08-14T00:32:31;15.77;;;9.20;;
6586;SDS011;3329;42.686;23.362;2022-08-14T00:34:57;21.00;;;9.77;;
6586;SDS011;3329;42.686;23.362;2022-08-14T00:37:25;17.20;;;9.67;;
6586;SDS011;3329;42.686;23.362;2022-08-14T00:39:55;13.23;;;8.80;;
6586;SDS011;3329;42.686;23.362;2022-08-14T00:42:21;15.17;;;9.50;;
6586;SDS011;3329;42.686;23.362;2022-08-14T00:44:48;13.87;;;8.97;;
6586;SDS011;3329;42.686;23.362;2022-08-14T00:47:15;16.33;;;9.20;;
6586;SDS011;3329;42.686;23.362;2022-08-14T00:49:43;14.33;;;9.60;;
6586;SDS011;3329;42.686;23.362;2022-08-14T00:52:13;14.77;;;8.97;;
6586;SDS011;3329;42.686;23.362;2022-08-14T00:54:44;15.97;;;9.20;;
6586;SDS011;3329;42.686;23.362;2022-08-14T00:57:22;17.90;;;10.83;;
6586;SDS011;3329;42.686;23.362;2022-08-14T00:59:49;17.47;;;10.27;;
6586;SDS011;3329;42.686;23.362;2022-08-14T01:02:17;17.63;;;10.57;;
6586;SDS011;3329;42.686;23.362;2022-08-14T01:04:48;18.87;;;10.17;;
6586;SDS011;3329;42.686;23.362;2022-08-14T01:07:16;15.73;;;10.53;;
6586;SDS011;3329;42.686;23.362;2022-08-14T01:09:54;21.40;;;12.07;;
6586;SDS011;3329;42.686;23.362;2022-08-14T01:12:22;18.07;;;10.27;;
6586;SDS011;3329;42.686;23.362;2022-08-14T01:14:50;22.80;;;12.40;;
6586;SDS011;3329;42.686;23.362;2022-08-14T01:17:19;18.07;;;10.67;;
6586;SDS011;3329;42.686;23.362;2022-08-14T01:19:45;19.93;;;11.10;;
6586;SDS011;3329;42.686;23.362;2022-08-14T01:22:29;16.67;;;10.13;;
6586;SDS011;3329;42.686;23.362;2022-08-14T01:24:55;17.23;;;9.87;;
6586;SDS011;3329;42.686;23.362;2022-08-14T01:27:21;17.53;;;10.37;;
6586;SDS011;3329;42.686;23.362;2022-08-14T01:29:49;21.30;;;11.13;;
6586;SDS011;3329;42.686;23.362;2022-08-14T01:32:17;16.43;;;10.17;;
6586;SDS011;3329;42.686;23.362;2022-08-14T01:34:46;17.00;;;10.37;;
6586;SDS011;3329;42.686;23.362;2022-08-14T01:37:22;15.67;;;10.00;;
6586;SDS011;3329;42.686;23.362;2022-08-14T01:39:49;18.37;;;10.37;;
6586;SDS011;3329;42.686;23.362;2022-08-14T01:42:15;19.33;;;10.80;;
6586;SDS011;3329;42.686;23.362;2022-08-14T01:44:41;17.43;;;10.40;;
6586;SDS011;3329;42.686;23.362;2022-08-14T01:47:07;19.10;;;11.13;;
6586;SDS011;3329;42.686;23.362;2022-08-14T01:49:36;16.47;;;10.03;;
6586;SDS011;3329;42.686;23.362;2022-08-14T01:52:01;20.13;;;10.43;;
6586;SDS011;3329;42.686;23.362;2022-08-14T01:54:27;20.40;;;10.57;;
6586;SDS011;3329;42.686;23.362;2022-08-14T01:56:53;18.60;;;9.67;;
6586;SDS011;3329;42.686;23.362;2022-08-14T01:59:22;15.50;;;10.03;;
6586;SDS011;3329;42.686;23.362;2022-08-14T02:01:53;16.57;;;9.83;;
6586;SDS011;3329;42.686;23.362;2022-08-14T02:04:21;21.10;;;10.87;;
6586;SDS011;3329;42.686;23.362;2022-08-14T02:06:48;19.40;;;10.37;;
6586;SDS011;3329;42.686;23.362;2022-08-14T02:09:15;17.90;;;10.27;;
6586;SDS011;3329;42.686;23.362;2022-08-14T02:11:41;18.30;;;10.53;;
6586;SDS011;3329;42.686;23.362;2022-08-14T02:14:09;18.37;;;11.07;;
6586;SDS011;3329;42.686;23.362;2022-08-14T02:16:43;18.07;;;10.43;;
6586;SDS011;3329;42.686;23.362;2022-08-14T02:19:16;20.23;;;10.87;;
6586;SDS011;3329;42.686;23.362;2022-08-14T02:21:43;19.70;;;10.17;;
6586;SDS011;3329;42.686;23.362;2022-08-14T02:24:11;18.43;;;10.53;;
6586;SDS011;3329;42.686;23.362;2022-08-14T02:26:38;19.43;;;10.77;;
6586;SDS011;3329;42.686;23.362;2022-08-14T02:29:27;19.67;;;10.97;;
6586;SDS011;3329;42.686;23.362;2022-08-14T02:31:55;19.17;;;10.37;;
6586;SDS011;3329;42.686;23.362;2022-08-14T02:34:27;16.73;;;10.57;;
6586;SDS011;3329;42.686;23.362;2022-08-14T02:37:01;18.37;;;10.83;;
6586;SDS011;3329;42.686;23.362;2022-08-14T02:39:29;22.13;;;11.87;;
6586;SDS011;3329;42.686;23.362;2022-08-14T02:41:57;16.10;;;10.73;;
6586;SDS011;3329;42.686;23.362;2022-08-14T02:44:23;17.07;;;10.23;;
6586;SDS011;3329;42.686;23.362;2022-08-14T02:46:50;18.33;;;11.50;;
6586;SDS011;3329;42.686;23.362;2022-08-14T02:49:17;18.93;;;11.13;;
6586;SDS011;3329;42.686;23.362;2022-08-14T02:51:53;19.10;;;11.10;;
6586;SDS011;3329;42.686;23.362;2022-08-14T02:54:20;21.10;;;10.83;;
6586;SDS011;3329;42.686;23.362;2022-08-14T02:56:50;17.00;;;10.37;;
6586;SDS011;3329;42.686;23.362;2022-08-14T02:59:18;25.63;;;11.23;;
6586;SDS011;3329;42.686;23.362;2022-08-14T03:01:44;22.23;;;11.20;;
6586;SDS011;3329;42.686;23.362;2022-08-14T03:04:12;23.03;;;10.87;;
6586;SDS011;3329;42.686;23.362;2022-08-14T03:06:37;18.33;;;10.63;;
6586;SDS011;3329;42.686;23.362;2022-08-14T03:09:07;18.07;;;10.67;;
6586;SDS011;3329;42.686;23.362;2022-08-14T03:11:33;19.57;;;11.33;;
6586;SDS011;3329;42.686;23.362;2022-08-14T03:13:58;17.30;;;10.10;;
6586;SDS011;3329;42.686;23.362;2022-08-14T03:16:24;20.27;;;10.60;;
6586;SDS011;3329;42.686;23.362;2022-08-14T03:18:51;22.37;;;12.23;;
6586;SDS011;3329;42.686;23.362;2022-08-14T03:21:19;22.57;;;13.63;;
6586;SDS011;3329;42.686;23.362;2022-08-14T03:23:48;22.93;;;12.27;;
6586;SDS011;3329;42.686;23.362;2022-08-14T03:26:19;27.63;;;13.13;;
6586;SDS011;3329;42.686;23.362;2022-08-14T03:28:49;26.57;;;12.40;;
6586;SDS011;3329;42.686;23.362;2022-08-14T03:31:15;25.23;;;14.33;;
6586;SDS011;3329;42.686;23.362;2022-08-14T03:33:46;30.13;;;15.93;;
6586;SDS011;3329;42.686;23.362;2022-08-14T03:36:12;29.83;;;15.83;;
6586;SDS011;3329;42.686;23.362;2022-08-14T03:38:43;36.57;;;16.33;;
6586;SDS011;3329;42.686;23.362;2022-08-14T03:41:14;25.27;;;14.70;;
6586;SDS011;3329;42.686;23.362;2022-08-14T03:43:45;26.33;;;13.70;;
6586;SDS011;3329;42.686;23.362;2022-08-14T03:46:11;22.10;;;13.43;;
6586;SDS011;3329;42.686;23.362;2022-08-14T03:48:38;28.27;;;15.03;;
6586;SDS011;3329;42.686;23.362;2022-08-14T03:51:06;30.17;;;13.83;;
6586;SDS011;3329;42.686;23.362;2022-08-14T03:53:37;25.63;;;13.63;;
6586;SDS011;3329;42.686;23.362;2022-08-14T03:56:04;23.57;;;11.90;;
6586;SDS011;3329;42.686;23.362;2022-08-14T03:58:31;22.83;;;13.50;;
6586;SDS011;3329;42.686;23.362;2022-08-14T04:00:58;32.17;;;14.47;;
6586;SDS011;3329;42.686;23.362;2022-08-14T04:03:24;29.30;;;13.47;;
6586;SDS011;3329;42.686;23.362;2022-08-14T04:05:50;21.97;;;13.17;;
6586;SDS011;3329;42.686;23.362;2022-08-14T04:08:17;24.67;;;13.73;;
6586;SDS011;3329;42.686;23.362;2022-08-14T04:10:44;23.07;;;12.50;;
6586;SDS011;3329;42.686;23.362;2022-08-14T04:13:10;22.77;;;12.07;;
6586;SDS011;3329;42.686;23.362;2022-08-14T04:15:36;24.70;;;14.00;;
6586;SDS011;3329;42.686;23.362;2022-08-14T04:18:05;25.17;;;14.50;;
6586;SDS011;3329;42.686;23.362;2022-08-14T04:20:32;25.13;;;13.63;;
6586;SDS011;3329;42.686;23.362;2022-08-14T04:23:03;25.90;;;13.97;;
6586;SDS011;3329;42.686;23.362;2022-08-14T04:25:30;24.30;;;13.53;;
6586;SDS011;3329;42.686;23.362;2022-08-14T04:27:58;28.33;;;12.77;;
6586;SDS011;3329;42.686;23.362;2022-08-14T04:30:25;25.73;;;13.97;;
6586;SDS011;3329;42.686;23.362;2022-08-14T04:32:53;28.17;;;14.77;;
6586;SDS011;3329;42.686;23.362;2022-08-14T04:35:19;26.83;;;14.70;;
6586;SDS011;3329;42.686;23.362;2022-08-14T04:37:45;30.20;;;14.43;;
6586;SDS011;3329;42.686;23.362;2022-08-14T04:40:29;32.47;;;14.03;;
6586;SDS011;3329;42.686;23.362;2022-08-14T04:43:13;32.43;;;15.17;;
6586;SDS011;3329;42.686;23.362;2022-08-14T04:45:57;31.07;;;15.37;;
6586;SDS011;3329;42.686;23.362;2022-08-14T04:48:25;31.27;;;16.37;;
6586;SDS011;3329;42.686;23.362;2022-08-14T04:50:52;31.50;;;15.70;;
6586;SDS011;3329;42.686;23.362;2022-08-14T04:53:18;30.17;;;16.33;;
6586;SDS011;3329;42.686;23.362;2022-08-14T04:55:46;30.70;;;16.17;;
6586;SDS011;3329;42.686;23.362;2022-08-14T04:58:16;32.93;;;17.33;;
6586;SDS011;3329;42.686;23.362;2022-08-14T05:00:44;31.57;;;16.30;;
6586;SDS011;3329;42.686;23.362;2022-08-14T05:03:12;31.83;;;16.40;;
6586;SDS011;3329;42.686;23.362;2022-08-14T05:05:37;28.37;;;15.20;;
6586;SDS011;3329;42.686;23.362;2022-08-14T05:08:07;32.60;;;16.03;;
6586;SDS011;3329;42.686;23.362;2022-08-14T05:10:36;34.20;;;18.03;;
6586;SDS011;3329;42.686;23.362;2022-08-14T05:13:04;37.77;;;18.03;;
6586;SDS011;3329;42.686;23.362;2022-08-14T05:15:31;42.50;;;23.83;;
6586;SDS011;3329;42.686;23.362;2022-08-14T05:18:00;35.77;;;17.77;;
6586;SDS011;3329;42.686;23.362;2022-08-14T05:20:37;32.73;;;17.10;;
6586;SDS011;3329;42.686;23.362;2022-08-14T05:23:04;35.30;;;18.07;;
6586;SDS011;3329;42.686;23.362;2022-08-14T05:25:31;31.73;;;17.43;;
6586;SDS011;3329;42.686;23.362;2022-08-14T05:28:04;35.50;;;17.63;;
6586;SDS011;3329;42.686;23.362;2022-08-14T05:30:30;31.43;;;17.50;;
6586;SDS011;3329;42.686;23.362;2022-08-14T05:32:56;41.10;;;17.50;;
6586;SDS011;3329;42.686;23.362;2022-08-14T05:35:21;32.60;;;17.00;;
6586;SDS011;3329;42.686;23.362;2022-08-14T05:37:48;32.03;;;16.77;;
6586;SDS011;3329;42.686;23.362;2022-08-14T05:40:14;34.07;;;16.73;;
6586;SDS011;3329;42.686;23.362;2022-08-14T05:42:45;31.10;;;15.83;;
6586;SDS011;3329;42.686;23.362;2022-08-14T05:45:10;28.53;;;14.97;;
6586;SDS011;3329;42.686;23.362;2022-08-14T05:50:49;22.03;;;14.00;;
6586;SDS011;3329;42.686;23.362;2022-08-14T05:53:16;20.27;;;12.70;;
6586;SDS011;3329;42.686;23.362;2022-08-14T05:55:59;21.90;;;13.33;;
6586;SDS011;3329;42.686;23.362;2022-08-14T05:58:25;25.37;;;13.20;;
6586;SDS011;3329;42.686;23.362;2022-08-14T06:00:51;30.83;;;15.20;;
6586;SDS011;3329;42.686;23.362;2022-08-14T06:03:18;29.03;;;14.27;;
6586;SDS011;3329;42.686;23.362;2022-08-14T06:05:45;30.00;;;14.87;;
6586;SDS011;3329;42.686;23.362;2022-08-14T06:08:15;26.57;;;14.67;;
6586;SDS011;3329;42.686;23.362;2022-08-14T06:10:43;25.87;;;14.73;;
6586;SDS011;3329;42.686;23.362;2022-08-14T06:13:09;31.00;;;15.10;;
6586;SDS011;3329;42.686;23.362;2022-08-14T06:15:35;22.00;;;14.27;;
6586;SDS011;3329;42.686;23.362;2022-08-14T06:18:00;21.73;;;12.47;;
6586;SDS011;3329;42.686;23.362;2022-08-14T06:20:26;24.80;;;14.40;;
6586;SDS011;3329;42.686;23.362;2022-08-14T06:22:52;22.90;;;14.00;;
6586;SDS011;3329;42.686;23.362;2022-08-14T06:25:17;22.57;;;14.20;;
6586;SDS011;3329;42.686;23.362;2022-08-14T06:27:44;26.03;;;14.87;;
6586;SDS011;3329;42.686;23.362;2022-08-14T06:30:15;25.20;;;13.97;;
6586;SDS011;3329;42.686;23.362;2022-08-14T06:32:44;25.90;;;13.77;;
6586;SDS011;3329;42.686;23.362;2022-08-14T06:35:10;24.97;;;13.80;;
6586;SDS011;3329;42.686;23.362;2022-08-14T06:37:43;22.10;;;14.43;;
6586;SDS011;3329;42.686;23.362;2022-08-14T06:40:23;22.90;;;14.80;;
6586;SDS011;3329;42.686;23.362;2022-08-14T06:42:50;26.30;;;14.13;;
6586;SDS011;3329;42.686;23.362;2022-08-14T06:45:16;22.80;;;14.67;;
6586;SDS011;3329;42.686;23.362;2022-08-14T06:47:43;24.80;;;14.43;;
6586;SDS011;3329;42.686;23.362;2022-08-14T06:50:11;22.70;;;14.07;;
6586;SDS011;3329;42.686;23.362;2022-08-14T06:52:41;26.43;;;14.80;;
6586;SDS011;3329;42.686;23.362;2022-08-14T06:55:09;28.70;;;15.40;;
6586;SDS011;3329;42.686;23.362;2022-08-14T06:57:40;26.40;;;15.40;;
6586;SDS011;3329;42.686;23.362;2022-08-14T07:00:15;25.30;;;15.23;;
6586;SDS011;3329;42.686;23.362;2022-08-14T07:02:45;25.07;;;15.20;;
6586;SDS011;3329;42.686;23.362;2022-08-14T07:05:30;28.33;;;14.93;;
6586;SDS011;3329;42.686;23.362;2022-08-14T07:08:25;27.57;;;16.23;;
6586;SDS011;3329;42.686;23.362;2022-08-14T07:10:57;28.73;;;15.20;;
6586;SDS011;3329;42.686;23.362;2022-08-14T07:13:25;32.83;;;16.53;;
6586;SDS011;3329;42.686;23.362;2022-08-14T07:15:52;26.43;;;15.53;;
6586;SDS011;3329;42.686;23.362;2022-08-14T07:18:22;28.10;;;15.90;;
6586;SDS011;3329;42.686;23.362;2022-08-14T07:20:48;26.73;;;15.00;;
6586;SDS011;3329;42.686;23.362;2022-08-14T07:23:15;25.13;;;15.53;;
6586;SDS011;3329;42.686;23.362;2022-08-14T07:25:41;27.97;;;15.10;;
6586;SDS011;3329;42.686;23.362;2022-08-14T07:28:09;30.20;;;16.13;;
6586;SDS011;3329;42.686;23.362;2022-08-14T07:30:36;25.33;;;15.80;;
6586;SDS011;3329;42.686;23.362;2022-08-14T07:33:02;27.30;;;15.33;;
6586;SDS011;3329;42.686;23.362;2022-08-14T07:35:27;27.47;;;15.80;;
6586;SDS011;3329;42.686;23.362;2022-08-14T07:37:53;27.30;;;16.17;;
6586;SDS011;3329;42.686;23.362;2022-08-14T07:40:18;28.03;;;14.73;;
6586;SDS011;3329;42.686;23.362;2022-08-14T07:42:44;26.17;;;14.03;;
6586;SDS011;3329;42.686;23.362;2022-08-14T07:45:09;26.07;;;13.57;;
6586;SDS011;3329;42.686;23.362;2022-08-14T07:47:42;24.80;;;13.80;;
6586;SDS011;3329;42.686;23.362;2022-08-14T07:50:11;23.60;;;14.00;;
6586;SDS011;3329;42.686;23.362;2022-08-14T07:52:39;21.57;;;12.20;;
6586;SDS011;3329;42.686;23.362;2022-08-14T07:55:14;16.87;;;9.97;;
6586;SDS011;3329;42.686;23.362;2022-08-14T08:01:49;12.23;;;7.80;;
6586;SDS011;3329;42.686;23.362;2022-08-14T08:04:28;17.93;;;9.90;;
6586;SDS011;3329;42.686;23.362;2022-08-14T08:10:44;17.63;;;10.33;;
6586;SDS011;3329;42.686;23.362;2022-08-14T08:13:17;18.03;;;10.33;;
6586;SDS011;3329;42.686;23.362;2022-08-14T08:15:49;10.70;;;7.90;;
6586;SDS011;3329;42.686;23.362;2022-08-14T08:18:20;11.30;;;7.30;;
6586;SDS011;3329;42.686;23.362;2022-08-14T08:20:47;6.17;;;4.40;;
6586;SDS011;3329;42.686;23.362;2022-08-14T08:23:15;6.07;;;4.67;;
6586;SDS011;3329;42.686;23.362;2022-08-14T08:25:43;7.63;;;4.53;;
6586;SDS011;3329;42.686;23.362;2022-08-14T08:28:14;5.43;;;3.70;;
6586;SDS011;3329;42.686;23.362;2022-08-14T08:33:13;5.47;;;4.00;;
6586;SDS011;3329;42.686;23.362;2022-08-14T08:35:41;6.23;;;4.80;;
6586;SDS011;3329;42.686;23.362;2022-08-14T08:38:08;5.33;;;3.93;;
6586;SDS011;3329;42.686;23.362;2022-08-14T08:40:37;6.07;;;4.67;;
6586;SDS011;3329;42.686;23.362;2022-08-14T08:43:15;7.77;;;5.23;;
6586;SDS011;3329;42.686;23.362;2022-08-14T08:45:52;6.43;;;4.90;;
6586;SDS011;3329;42.686;23.362;2022-08-14T08:48:21;8.43;;;5.13;;
6586;SDS011;3329;42.686;23.362;2022-08-14T08:50:47;6.97;;;4.77;;
6586;SDS011;3329;42.686;23.362;2022-08-14T08:53:13;7.87;;;5.70;;
6586;SDS011;3329;42.686;23.362;2022-08-14T08:55:40;7.57;;;5.27;;
6586;SDS011;3329;42.686;23.362;2022-08-14T08:58:11;8.53;;;5.43;;
6586;SDS011;3329;42.686;23.362;2022-08-14T09:00:41;7.57;;;5.20;;
6586;SDS011;3329;42.686;23.362;2022-08-14T09:03:10;7.60;;;5.43;;
6586;SDS011;3329;42.686;23.362;2022-08-14T09:06:20;7.03;;;4.83;;
6586;SDS011;3329;42.686;23.362;2022-08-14T09:08:46;17.33;;;6.53;;
6586;SDS011;3329;42.686;23.362;2022-08-14T09:11:11;10.97;;;6.67;;
6586;SDS011;3329;42.686;23.362;2022-08-14T09:13:37;10.43;;;6.70;;
6586;SDS011;3329;42.686;23.362;2022-08-14T09:16:05;6.97;;;5.27;;
6586;SDS011;3329;42.686;23.362;2022-08-14T09:18:33;8.30;;;4.87;;
6586;SDS011;3329;42.686;23.362;2022-08-14T09:20:59;8.60;;;6.20;;
6586;SDS011;3329;42.686;23.362;2022-08-14T09:23:25;6.10;;;4.77;;
6586;SDS011;3329;42.686;23.362;2022-08-14T09:25:51;10.63;;;5.63;;
6586;SDS011;3329;42.686;23.362;2022-08-14T09:28:18;9.23;;;5.90;;
6586;SDS011;3329;42.686;23.362;2022-08-14T09:30:46;11.83;;;5.47;;
6586;SDS011;3329;42.686;23.362;2022-08-14T09:33:25;6.93;;;5.60;;
6586;SDS011;3329;42.686;23.362;2022-08-14T09:38:56;8.40;;;5.90;;
6586;SDS011;3329;42.686;23.362;2022-08-14T09:41:32;7.80;;;5.30;;
6586;SDS011;3329;42.686;23.362;2022-08-14T09:44:04;8.60;;;5.27;;
6586;SDS011;3329;42.686;23.362;2022-08-14T09:46:40;6.90;;;5.33;;
6586;SDS011;3329;42.686;23.362;2022-08-14T09:49:17;5.43;;;4.43;;
6586;SDS011;3329;42.686;23.362;2022-08-14T09:54:37;7.73;;;5.10;;
6586;SDS011;3329;42.686;23.362;2022-08-14T09:57:08;7.87;;;5.23;;
6586;SDS011;3329;42.686;23.362;2022-08-14T09:59:42;6.23;;;4.30;;
6586;SDS011;3329;42.686;23.362;2022-08-14T10:02:28;4.70;;;4.00;;
6586;SDS011;3329;42.686;23.362;2022-08-14T10:05:07;5.97;;;4.03;;
6586;SDS011;3329;42.686;23.362;2022-08-14T10:07:36;5.93;;;4.43;;
6586;SDS011;3329;42.686;23.362;2022-08-14T10:10:26;5.63;;;4.27;;
6586;SDS011;3329;42.686;23.362;2022-08-14T10:12:52;7.20;;;4.50;;
6586;SDS011;3329;42.686;23.362;2022-08-14T10:15:20;6.13;;;3.90;;
6586;SDS011;3329;42.686;23.362;2022-08-14T10:18:01;5.20;;;4.33;;
6586;SDS011;3329;42.686;23.362;2022-08-14T10:20:31;8.20;;;4.33;;
6586;SDS011;3329;42.686;23.362;2022-08-14T10:25:41;6.97;;;4.77;;
6586;SDS011;3329;42.686;23.362;2022-08-14T10:28:08;7.03;;;4.20;;
6586;SDS011;3329;42.686;23.362;2022-08-14T10:30:39;7.67;;;3.63;;
6586;SDS011;3329;42.686;23.362;2022-08-14T10:33:05;4.57;;;3.50;;
6586;SDS011;3329;42.686;23.362;2022-08-14T10:35:41;8.67;;;4.57;;
6586;SDS011;3329;42.686;23.362;2022-08-14T10:38:07;5.20;;;4.47;;
6586;SDS011;3329;42.686;23.362;2022-08-14T10:40:34;5.37;;;4.13;;
6586;SDS011;3329;42.686;23.362;2022-08-14T10:43:00;5.50;;;4.17;;
6586;SDS011;3329;42.686;23.362;2022-08-14T10:47:58;5.73;;;4.13;;
6586;SDS011;3329;42.686;23.362;2022-08-14T10:50:32;8.90;;;4.43;;
6586;SDS011;3329;42.686;23.362;2022-08-14T10:53:00;4.87;;;4.07;;
6586;SDS011;3329;42.686;23.362;2022-08-14T10:55:33;4.60;;;3.70;;
6586;SDS011;3329;42.686;23.362;2022-08-14T10:58:03;5.93;;;4.33;;
6586;SDS011;3329;42.686;23.362;2022-08-14T11:00:31;6.40;;;5.00;;
6586;SDS011;3329;42.686;23.362;2022-08-14T11:02:58;7.10;;;4.57;;
6586;SDS011;3329;42.686;23.362;2022-08-14T11:08:34;4.50;;;3.50;;
6586;SDS011;3329;42.686;23.362;2022-08-14T11:11:02;6.33;;;3.50;;
6586;SDS011;3329;42.686;23.362;2022-08-14T11:13:29;3.80;;;3.40;;
6586;SDS011;3329;42.686;23.362;2022-08-14T11:15:56;5.67;;;3.83;;
6586;SDS011;3329;42.686;23.362;2022-08-14T11:18:25;4.43;;;3.80;;
6586;SDS011;3329;42.686;23.362;2022-08-14T11:20:54;5.43;;;4.27;;
6586;SDS011;3329;42.686;23.362;2022-08-14T11:23:26;8.30;;;4.70;;
6586;SDS011;3329;42.686;23.362;2022-08-14T11:25:59;4.87;;;3.83;;
6586;SDS011;3329;42.686;23.362;2022-08-14T11:28:26;4.87;;;3.77;;
6586;SDS011;3329;42.686;23.362;2022-08-14T11:30:56;5.33;;;3.77;;
6586;SDS011;3329;42.686;23.362;2022-08-14T11:33:23;4.90;;;4.00;;
6586;SDS011;3329;42.686;23.362;2022-08-14T11:35:53;5.80;;;4.27;;
6586;SDS011;3329;42.686;23.362;2022-08-14T11:38:18;6.53;;;3.87;;
6586;SDS011;3329;42.686;23.362;2022-08-14T11:40:45;4.70;;;3.53;;
6586;SDS011;3329;42.686;23.362;2022-08-14T11:43:11;5.27;;;4.00;;
6586;SDS011;3329;42.686;23.362;2022-08-14T11:45:37;5.10;;;3.97;;
6586;SDS011;3329;42.686;23.362;2022-08-14T11:50:43;9.03;;;4.07;;
6586;SDS011;3329;42.686;23.362;2022-08-14T11:53:19;5.83;;;4.30;;
6586;SDS011;3329;42.686;23.362;2022-08-14T11:55:47;6.77;;;4.37;;
6586;SDS011;3329;42.686;23.362;2022-08-14T11:58:23;5.03;;;4.13;;
6586;SDS011;3329;42.686;23.362;2022-08-14T12:00:52;5.87;;;4.30;;
6586;SDS011;3329;42.686;23.362;2022-08-14T12:03:33;5.53;;;3.80;;
6586;SDS011;3329;42.686;23.362;2022-08-14T12:06:07;6.73;;;4.00;;
6586;SDS011;3329;42.686;23.362;2022-08-14T12:08:37;5.50;;;4.00;;
6586;SDS011;3329;42.686;23.362;2022-08-14T12:11:07;8.03;;;4.27;;
6586;SDS011;3329;42.686;23.362;2022-08-14T12:13:36;5.73;;;4.50;;
6586;SDS011;3329;42.686;23.362;2022-08-14T12:16:04;5.13;;;4.50;;
6586;SDS011;3329;42.686;23.362;2022-08-14T12:18:33;6.40;;;4.57;;
6586;SDS011;3329;42.686;23.362;2022-08-14T12:23:42;5.30;;;3.73;;
6586;SDS011;3329;42.686;23.362;2022-08-14T12:26:12;10.77;;;5.00;;
6586;SDS011;3329;42.686;23.362;2022-08-14T12:28:42;7.23;;;5.07;;
6586;SDS011;3329;42.686;23.362;2022-08-14T12:31:16;5.87;;;4.30;;
6586;SDS011;3329;42.686;23.362;2022-08-14T12:33:53;6.77;;;4.63;;
6586;SDS011;3329;42.686;23.362;2022-08-14T12:36:20;7.70;;;4.57;;
6586;SDS011;3329;42.686;23.362;2022-08-14T12:38:46;6.63;;;4.20;;
6586;SDS011;3329;42.686;23.362;2022-08-14T12:41:19;6.47;;;4.90;;
6586;SDS011;3329;42.686;23.362;2022-08-14T12:43:46;8.77;;;5.13;;
6586;SDS011;3329;42.686;23.362;2022-08-14T12:48:49;6.70;;;5.00;;
6586;SDS011;3329;42.686;23.362;2022-08-14T12:51:16;8.83;;;5.20;;
6586;SDS011;3329;42.686;23.362;2022-08-14T12:53:46;6.70;;;4.97;;
6586;SDS011;3329;42.686;23.362;2022-08-14T12:56:15;7.03;;;5.33;;
6586;SDS011;3329;42.686;23.362;2022-08-14T12:58:45;8.17;;;5.43;;
6586;SDS011;3329;42.686;23.362;2022-08-14T13:01:22;13.63;;;5.37;;
6586;SDS011;3329;42.686;23.362;2022-08-14T13:04:03;10.70;;;5.97;;
6586;SDS011;3329;42.686;23.362;2022-08-14T13:06:36;10.83;;;5.87;;
6586;SDS011;3329;42.686;23.362;2022-08-14T13:09:04;7.20;;;5.47;;
6586;SDS011;3329;42.686;23.362;2022-08-14T13:14:06;10.33;;;6.07;;
6586;SDS011;3329;42.686;23.362;2022-08-14T13:16:32;10.10;;;5.80;;
6586;SDS011;3329;42.686;23.362;2022-08-14T13:18:58;11.63;;;5.90;;
6586;SDS011;3329;42.686;23.362;2022-08-14T13:21:28;12.27;;;6.70;;
6586;SDS011;3329;42.686;23.362;2022-08-14T13:23:55;8.67;;;6.47;;
6586;SDS011;3329;42.686;23.362;2022-08-14T13:26:24;8.57;;;6.07;;
6586;SDS011;3329;42.686;23.362;2022-08-14T13:28:51;7.93;;;5.63;;
6586;SDS011;3329;42.686;23.362;2022-08-14T13:31:19;8.80;;;6.17;;
6586;SDS011;3329;42.686;23.362;2022-08-14T13:33:53;11.20;;;6.23;;
6586;SDS011;3329;42.686;23.362;2022-08-14T13:41:47;8.53;;;5.83;;
6586;SDS011;3329;42.686;23.362;2022-08-14T13:44:16;7.83;;;6.33;;
6586;SDS011;3329;42.686;23.362;2022-08-14T13:46:47;9.73;;;5.80;;
6586;SDS011;3329;42.686;23.362;2022-08-14T13:49:13;12.33;;;7.17;;
6586;SDS011;3329;42.686;23.362;2022-08-14T13:51:40;11.00;;;7.00;;
6586;SDS011;3329;42.686;23.362;2022-08-14T13:54:11;10.07;;;6.27;;
6586;SDS011;3329;42.686;23.362;2022-08-14T13:56:41;10.90;;;6.27;;
6586;SDS011;3329;42.686;23.362;2022-08-14T13:59:07;8.97;;;5.97;;
6586;SDS011;3329;42.686;23.362;2022-08-14T14:01:33;10.27;;;6.07;;
6586;SDS011;3329;42.686;23.362;2022-08-14T14:03:59;8.43;;;5.80;;
6586;SDS011;3329;42.686;23.362;2022-08-14T14:06:28;10.67;;;6.60;;
6586;SDS011;3329;42.686;23.362;2022-08-14T14:08:57;12.93;;;6.43;;
6586;SDS011;3329;42.686;23.362;2022-08-14T14:11:23;11.13;;;6.20;;
6586;SDS011;3329;42.686;23.362;2022-08-14T14:13:49;9.87;;;5.63;;
6586;SDS011;3329;42.686;23.362;2022-08-14T14:16:16;9.60;;;5.57;;
6586;SDS011;3329;42.686;23.362;2022-08-14T14:18:46;10.13;;;6.37;;
6586;SDS011;3329;42.686;23.362;2022-08-14T14:21:17;8.20;;;5.57;;
6586;SDS011;3329;42.686;23.362;2022-08-14T14:23:44;8.63;;;5.97;;
6586;SDS011;3329;42.686;23.362;2022-08-14T14:26:14;8.10;;;6.43;;
6586;SDS011;3329;42.686;23.362;2022-08-14T14:28:41;10.17;;;6.17;;
6586;SDS011;3329;42.686;23.362;2022-08-14T14:31:08;8.00;;;5.50;;
6586;SDS011;3329;42.686;23.362;2022-08-14T14:33:39;10.37;;;5.73;;
6586;SDS011;3329;42.686;23.362;2022-08-14T14:36:10;6.73;;;4.90;;
6586;SDS011;3329;42.686;23.362;2022-08-14T14:38:39;6.30;;;4.60;;
6586;SDS011;3329;42.686;23.362;2022-08-14T14:41:08;7.90;;;4.50;;
6586;SDS011;3329;42.686;23.362;2022-08-14T14:43:34;8.57;;;5.70;;
6586;SDS011;3329;42.686;23.362;2022-08-14T14:46:01;5.70;;;4.40;;
6586;SDS011;3329;42.686;23.362;2022-08-14T14:48:27;7.20;;;4.27;;
6586;SDS011;3329;42.686;23.362;2022-08-14T14:50:53;7.43;;;4.47;;
6586;SDS011;3329;42.686;23.362;2022-08-14T14:53:20;6.93;;;4.47;;
6586;SDS011;3329;42.686;23.362;2022-08-14T14:55:47;6.93;;;4.70;;
6586;SDS011;3329;42.686;23.362;2022-08-14T14:58:13;5.83;;;4.07;;
6586;SDS011;3329;42.686;23.362;2022-08-14T15:00:40;7.67;;;4.90;;
6586;SDS011;3329;42.686;23.362;2022-08-14T15:03:06;11.53;;;4.87;;
6586;SDS011;3329;42.686;23.362;2022-08-14T15:05:32;7.10;;;4.77;;
6586;SDS011;3329;42.686;23.362;2022-08-14T15:07:57;5.57;;;4.17;;
6586;SDS011;3329;42.686;23.362;2022-08-14T15:10:23;7.07;;;4.30;;
6586;SDS011;3329;42.686;23.362;2022-08-14T15:12:49;11.10;;;4.93;;
6586;SDS011;3329;42.686;23.362;2022-08-14T15:15:14;11.70;;;4.90;;
6586;SDS011;3329;42.686;23.362;2022-08-14T15:17:40;8.03;;;5.43;;
6586;SDS011;3329;42.686;23.362;2022-08-14T15:20:15;9.57;;;4.50;;
6586;SDS011;3329;42.686;23.362;2022-08-14T15:22:41;8.73;;;4.47;;
6586;SDS011;3329;42.686;23.362;2022-08-14T15:25:07;6.47;;;4.50;;
6586;SDS011;3329;42.686;23.362;2022-08-14T15:31:03;5.57;;;4.03;;
6586;SDS011;3329;42.686;23.362;2022-08-14T15:51:26;7.77;;;4.50;;
6586;SDS011;3329;42.686;23.362;2022-08-14T15:53:56;9.77;;;5.13;;
6586;SDS011;3329;42.686;23.362;2022-08-14T15:56:22;8.63;;;5.13;;
6586;SDS011;3329;42.686;23.362;2022-08-14T15:58:48;8.57;;;4.10;;
6586;SDS011;3329;42.686;23.362;2022-08-14T16:01:13;6.40;;;4.07;;